ANA742 RJTT-RJCC
Flight info
| Callsign | ANA742 |
|---|---|
| Flight time | N/A |
| Altitude | 39000 |
| Route | BRUCE AGRIS Y11 SAMBO Y119 OHMAR Y13 SIRAO Y139 NAVER |
| Aircraft | A320/M-SDE3FGHIRWY/LB1 |
Departure
| Time | N/A |
|---|---|
| Airport | Tokyo Haneda International Airport (RJTT) |
Arrival
| Time | 2026-04-30 18:17 |
|---|---|
| Airport | New Chitose Airport (RJCC) |
| Time | Latitude | Longitude | Altitude | Speed | Heading |
|---|---|---|---|---|---|
| 2026-04-30 17:39 | 40.27526 | 140.95347 | 39091 ft | 488 kts | 344° |
| 2026-04-30 17:42 | 40.61501 | 140.96441 | 39075 ft | 489 kts | 345° |
| 2026-04-30 17:43 | 40.78460 | 140.97028 | 39077 ft | 486 kts | 345° |
| 2026-04-30 17:44 | 40.98766 | 140.97681 | 39078 ft | 488 kts | 345° |
| 2026-04-30 17:47 | 41.29294 | 140.98833 | 39081 ft | 496 kts | 352° |
| 2026-04-30 17:48 | 41.42799 | 141.04642 | 39086 ft | 495 kts | 7° |
| 2026-04-30 17:48 | 41.52000 | 141.09247 | 39080 ft | 449 kts | 6° |
| 2026-04-30 17:49 | 41.63504 | 141.14835 | 39087 ft | 437 kts | 5° |
| 2026-04-30 17:50 | 41.74904 | 141.20514 | 39111 ft | 437 kts | 7° |
| 2026-04-30 17:52 | 41.91894 | 141.29174 | 39098 ft | 433 kts | 7° |
| 2026-04-30 17:53 | 42.04537 | 141.41726 | 39100 ft | 468 kts | 34° |
| 2026-04-30 17:54 | 42.13985 | 141.53581 | 39108 ft | 454 kts | 26° |
| 2026-04-30 17:56 | 42.34083 | 141.73807 | 38404 ft | 444 kts | 27° |
| 2026-04-30 17:57 | 42.41362 | 141.81201 | 37327 ft | 431 kts | 27° |
| 2026-04-30 17:58 | 42.48456 | 141.88397 | 35902 ft | 429 kts | 27° |
| 2026-04-30 17:59 | 42.59620 | 141.94723 | 30600 ft | 445 kts | 343° |
| 2026-04-30 18:00 | 42.72627 | 141.91820 | 24404 ft | 489 kts | 346° |
| 2026-04-30 18:00 | 42.81408 | 141.89909 | 22140 ft | 471 kts | 348° |
| 2026-04-30 18:01 | 42.87806 | 141.88538 | 20501 ft | 460 kts | 348° |
| 2026-04-30 18:02 | 42.97044 | 141.86520 | 19107 ft | 426 kts | 348° |
| 2026-04-30 18:02 | 43.05590 | 141.84058 | 16222 ft | 430 kts | 341° |
| 2026-04-30 18:03 | 43.14433 | 141.81065 | 13425 ft | 426 kts | 344° |
| 2026-04-30 18:04 | 43.22436 | 141.77117 | 9654 ft | 396 kts | 320° |
| 2026-04-30 18:05 | 43.26132 | 141.64483 | 4709 ft | 348 kts | 261° |
| 2026-04-30 18:06 | 43.21646 | 141.54969 | 2995 ft | 270 kts | 212° |
| 2026-04-30 18:07 | 43.15798 | 141.52865 | 3169 ft | 178 kts | 176° |
| 2026-04-30 18:08 | 43.12498 | 141.55076 | 3030 ft | 181 kts | 146° |
| 2026-04-30 18:09 | 43.08524 | 141.59234 | 3018 ft | 179 kts | 147° |
| 2026-04-30 18:10 | 43.04580 | 141.63350 | 3018 ft | 179 kts | 147° |
| 2026-04-30 18:11 | 42.99979 | 141.65058 | 3012 ft | 172 kts | 173° |
| 2026-04-30 18:11 | 42.96434 | 141.65700 | 3014 ft | 170 kts | 174° |
| 2026-04-30 18:12 | 42.92876 | 141.66331 | 2889 ft | 169 kts | 175° |
| 2026-04-30 18:13 | 42.90619 | 141.66729 | 2494 ft | 158 kts | 174° |
| 2026-04-30 18:13 | 42.87846 | 141.67221 | 1929 ft | 143 kts | 173° |
| 2026-04-30 18:14 | 42.85799 | 141.67583 | 1508 ft | 117 kts | 173° |
| 2026-04-30 18:15 | 42.83405 | 141.68006 | 1037 ft | 117 kts | 172° |
| 2026-04-30 18:15 | 42.80899 | 141.68447 | 545 ft | 129 kts | 173° |
| 2026-04-30 18:16 | 42.79122 | 141.68765 | 173 ft | 130 kts | 174° |
| 2026-04-30 18:16 | 42.77622 | 141.69024 | 78 ft | 67 kts | 172° |
| 2026-04-30 18:17 | 42.77422 | 141.69060 | 82 ft | 36 kts | 173° |
| 2026-04-30 18:17 | 42.77239 | 141.69052 | 73 ft | 21 kts | 204° |
| 2026-04-30 18:17 | 42.77100 | 141.68899 | 67 ft | 10 kts | 335° |
| 2026-04-30 18:18 | 42.77161 | 141.68879 | 68 ft | 8 kts | 352° |
| 2026-04-30 18:18 | 42.77213 | 141.68869 | 62 ft | 7 kts | 352° |
| 2026-04-30 18:18 | 42.77256 | 141.68861 | 70 ft | 6 kts | 352° |
| 2026-04-30 18:18 | 42.77293 | 141.68854 | 71 ft | 5 kts | 352° |
| 2026-04-30 18:19 | 42.77324 | 141.68848 | 72 ft | 4 kts | 352° |
| 2026-04-30 18:19 | 42.77349 | 141.68843 | 74 ft | 3 kts | 352° |
| 2026-04-30 18:19 | 42.77368 | 141.68840 | 74 ft | 2 kts | 352° |
| 2026-04-30 18:19 | 42.77381 | 141.68837 | 74 ft | 1 kts | 352° |
| 2026-04-30 18:20 | 42.77388 | 141.68836 | 71 ft | 1 kts | 352° |
| 2026-04-30 18:20 | 42.77392 | 141.68835 | 74 ft | 1 kts | 352° |
| 2026-04-30 18:20 | 42.77395 | 141.68835 | 68 ft | 1 kts | 352° |
| 2026-04-30 18:20 | 42.77453 | 141.68827 | 74 ft | 11 kts | 354° |
| 2026-04-30 18:21 | 42.77493 | 141.68820 | 73 ft | 5 kts | 353° |
| 2026-04-30 18:21 | 42.77521 | 141.68815 | 82 ft | 3 kts | 353° |
| 2026-04-30 18:21 | 42.77541 | 141.68811 | 80 ft | 2 kts | 353° |
| 2026-04-30 18:21 | 42.77554 | 141.68809 | 80 ft | 1 kts | 353° |
| 2026-04-30 18:22 | 42.77560 | 141.68808 | 81 ft | 0 kts | 353° |
| 2026-04-30 18:22 | 42.77561 | 141.68808 | 82 ft | 0 kts | 353° |
| 2026-04-30 18:22 | 42.77566 | 141.68807 | 82 ft | 3 kts | 353° |
| 2026-04-30 18:23 | 42.77586 | 141.68804 | 79 ft | 3 kts | 353° |
| 2026-04-30 18:23 | 42.77622 | 141.68797 | 82 ft | 5 kts | 353° |
| 2026-04-30 18:23 | 42.77655 | 141.68792 | 83 ft | 4 kts | 353° |
| 2026-04-30 18:23 | 42.77681 | 141.68787 | 82 ft | 3 kts | 353° |
| 2026-04-30 18:24 | 42.77715 | 141.68781 | 85 ft | 2 kts | 353° |
| 2026-04-30 18:24 | 42.77722 | 141.68780 | 85 ft | 1 kts | 353° |
| 2026-04-30 18:24 | 42.77735 | 141.68778 | 83 ft | 4 kts | 353° |
| 2026-04-30 18:25 | 42.77839 | 141.68763 | 85 ft | 20 kts | 350° |
| 2026-04-30 18:25 | 42.78007 | 141.68729 | 86 ft | 10 kts | 352° |
| 2026-04-30 18:25 | 42.78070 | 141.68717 | 84 ft | 8 kts | 352° |
| 2026-04-30 18:26 | 42.78170 | 141.68703 | 88 ft | 6 kts | 354° |
| 2026-04-30 18:26 | 42.78208 | 141.68697 | 86 ft | 5 kts | 353° |
| 2026-04-30 18:26 | 42.78241 | 141.68692 | 88 ft | 4 kts | 353° |
| 2026-04-30 18:27 | 42.78288 | 141.68681 | 85 ft | 3 kts | 353° |
| 2026-04-30 18:27 | 42.78331 | 141.68674 | 88 ft | 6 kts | 353° |
| 2026-04-30 18:28 | 42.78402 | 141.68662 | 87 ft | 4 kts | 353° |
| 2026-04-30 18:28 | 42.78427 | 141.68658 | 88 ft | 3 kts | 353° |
| 2026-04-30 18:28 | 42.78455 | 141.68653 | 89 ft | 1 kts | 353° |
| 2026-04-30 18:29 | 42.78457 | 141.68653 | 88 ft | 0 kts | 353° |
| 2026-04-30 18:29 | 42.78488 | 141.68647 | 88 ft | 4 kts | 352° |
| 2026-04-30 18:30 | 42.78534 | 141.68638 | 87 ft | 2 kts | 352° |
| 2026-04-30 18:30 | 42.78557 | 141.68634 | 90 ft | 1 kts | 352° |
| 2026-04-30 18:31 | 42.78560 | 141.68634 | 89 ft | 0 kts | 352° |
| 2026-04-30 18:31 | 42.78570 | 141.68632 | 86 ft | 2 kts | 352° |
| 2026-04-30 18:32 | 42.78582 | 141.68630 | 88 ft | 0 kts | 352° |
| 2026-04-30 18:32 | 42.78603 | 141.68625 | 88 ft | 1 kts | 352° |
| 2026-04-30 18:33 | 42.78607 | 141.68625 | 89 ft | 0 kts | 352° |
| 2026-04-30 18:33 | 42.78608 | 141.68625 | 89 ft | 0 kts | 352° |
| 2026-04-30 18:34 | 42.78611 | 141.68624 | 89 ft | 0 kts | 352° |
| 2026-04-30 18:35 | 42.78643 | 141.68618 | 90 ft | 12 kts | 352° |
| 2026-04-30 18:35 | 42.78719 | 141.68604 | 90 ft | 10 kts | 352° |
| 2026-04-30 18:35 | 42.78783 | 141.68591 | 88 ft | 9 kts | 346° |
| 2026-04-30 18:36 | 42.78804 | 141.68414 | 88 ft | 10 kts | 305° |
| 2026-04-30 18:36 | 42.78872 | 141.68384 | 89 ft | 10 kts | 341° |
| 2026-04-30 18:36 | 42.78936 | 141.68291 | 91 ft | 7 kts | 240° |
| 2026-04-30 18:37 | 42.78914 | 141.68239 | 87 ft | 6 kts | 240° |
| 2026-04-30 18:37 | 42.78900 | 141.68205 | 87 ft | 0 kts | 240° |
| 2026-04-30 18:37 | 42.78899 | 141.68204 | 87 ft | 0 kts | 240° |